sensor_id;sensor_type;location;lat;lon;timestamp;P1;durP1;ratioP1;P2;durP2;ratioP2
45232;SDS011;30969;51.052;17.056;2023-03-01T00:01:16;78.95;;;38.42;;
45232;SDS011;30969;51.052;17.056;2023-03-01T00:06:21;80.50;;;40.53;;
45232;SDS011;30969;51.052;17.056;2023-03-01T00:11:26;81.65;;;38.20;;
45232;SDS011;30969;51.052;17.056;2023-03-01T00:16:32;76.90;;;35.88;;
45232;SDS011;30969;51.052;17.056;2023-03-01T00:21:41;74.13;;;35.28;;
45232;SDS011;30969;51.052;17.056;2023-03-01T00:26:45;74.25;;;37.10;;
45232;SDS011;30969;51.052;17.056;2023-03-01T00:31:49;71.95;;;35.53;;
45232;SDS011;30969;51.052;17.056;2023-03-01T00:36:54;76.57;;;37.05;;
45232;SDS011;30969;51.052;17.056;2023-03-01T00:42:07;74.63;;;36.72;;
45232;SDS011;30969;51.052;17.056;2023-03-01T00:47:11;69.28;;;35.50;;
45232;SDS011;30969;51.052;17.056;2023-03-01T00:52:16;70.93;;;33.92;;
45232;SDS011;30969;51.052;17.056;2023-03-01T00:57:20;65.85;;;34.35;;
45232;SDS011;30969;51.052;17.056;2023-03-01T01:02:23;66.15;;;33.90;;
45232;SDS011;30969;51.052;17.056;2023-03-01T01:07:28;72.30;;;34.88;;
45232;SDS011;30969;51.052;17.056;2023-03-01T01:12:32;65.35;;;34.92;;
45232;SDS011;30969;51.052;17.056;2023-03-01T01:17:35;67.95;;;34.42;;
45232;SDS011;30969;51.052;17.056;2023-03-01T01:22:40;67.95;;;32.33;;
45232;SDS011;30969;51.052;17.056;2023-03-01T01:27:46;67.28;;;34.10;;
45232;SDS011;30969;51.052;17.056;2023-03-01T01:32:50;64.63;;;32.78;;
45232;SDS011;30969;51.052;17.056;2023-03-01T01:37:54;57.30;;;29.23;;
45232;SDS011;30969;51.052;17.056;2023-03-01T01:42:58;71.60;;;35.55;;
45232;SDS011;30969;51.052;17.056;2023-03-01T01:48:03;75.97;;;34.55;;
45232;SDS011;30969;51.052;17.056;2023-03-01T01:53:12;75.72;;;36.13;;
45232;SDS011;30969;51.052;17.056;2023-03-01T01:58:19;76.18;;;36.20;;
45232;SDS011;30969;51.052;17.056;2023-03-01T02:03:25;69.53;;;34.33;;
45232;SDS011;30969;51.052;17.056;2023-03-01T02:08:37;73.43;;;36.03;;
45232;SDS011;30969;51.052;17.056;2023-03-01T02:13:43;72.60;;;35.35;;
45232;SDS011;30969;51.052;17.056;2023-03-01T02:18:46;74.10;;;36.10;;
45232;SDS011;30969;51.052;17.056;2023-03-01T02:23:51;70.32;;;35.30;;
45232;SDS011;30969;51.052;17.056;2023-03-01T02:28:58;67.88;;;33.08;;
45232;SDS011;30969;51.052;17.056;2023-03-01T02:34:02;66.63;;;33.50;;
45232;SDS011;30969;51.052;17.056;2023-03-01T02:39:07;63.85;;;34.13;;
45232;SDS011;30969;51.052;17.056;2023-03-01T02:44:17;69.40;;;36.33;;
45232;SDS011;30969;51.052;17.056;2023-03-01T02:49:22;79.88;;;36.58;;
45232;SDS011;30969;51.052;17.056;2023-03-01T02:54:28;74.60;;;37.20;;
45232;SDS011;30969;51.052;17.056;2023-03-01T02:59:35;73.28;;;36.13;;
45232;SDS011;30969;51.052;17.056;2023-03-01T03:04:42;68.85;;;35.17;;
45232;SDS011;30969;51.052;17.056;2023-03-01T03:09:45;69.25;;;35.22;;
45232;SDS011;30969;51.052;17.056;2023-03-01T03:14:51;69.22;;;35.53;;
45232;SDS011;30969;51.052;17.056;2023-03-01T03:19:54;78.85;;;38.08;;
45232;SDS011;30969;51.052;17.056;2023-03-01T03:24:58;73.53;;;37.47;;
45232;SDS011;30969;51.052;17.056;2023-03-01T03:30:03;71.47;;;34.47;;
45232;SDS011;30969;51.052;17.056;2023-03-01T03:35:10;72.53;;;34.97;;
45232;SDS011;30969;51.052;17.056;2023-03-01T03:40:14;68.45;;;34.30;;
45232;SDS011;30969;51.052;17.056;2023-03-01T03:45:19;69.38;;;35.05;;
45232;SDS011;30969;51.052;17.056;2023-03-01T03:50:22;66.47;;;33.75;;
45232;SDS011;30969;51.052;17.056;2023-03-01T03:55:26;69.22;;;34.67;;
45232;SDS011;30969;51.052;17.056;2023-03-01T04:00:33;63.38;;;32.90;;
45232;SDS011;30969;51.052;17.056;2023-03-01T04:05:39;74.82;;;35.85;;
45232;SDS011;30969;51.052;17.056;2023-03-01T04:10:44;70.25;;;35.25;;
45232;SDS011;30969;51.052;17.056;2023-03-01T04:15:51;76.70;;;37.70;;
45232;SDS011;30969;51.052;17.056;2023-03-01T04:20:56;71.50;;;37.78;;
45232;SDS011;30969;51.052;17.056;2023-03-01T04:25:59;73.22;;;36.53;;
45232;SDS011;30969;51.052;17.056;2023-03-01T04:31:06;77.80;;;37.05;;
45232;SDS011;30969;51.052;17.056;2023-03-01T04:36:16;79.40;;;37.83;;
45232;SDS011;30969;51.052;17.056;2023-03-01T04:41:20;78.18;;;39.92;;
45232;SDS011;30969;51.052;17.056;2023-03-01T04:46:26;91.25;;;41.85;;
45232;SDS011;30969;51.052;17.056;2023-03-01T04:51:31;83.20;;;40.03;;
45232;SDS011;30969;51.052;17.056;2023-03-01T04:56:35;87.55;;;40.05;;
45232;SDS011;30969;51.052;17.056;2023-03-01T05:01:39;80.38;;;38.55;;
45232;SDS011;30969;51.052;17.056;2023-03-01T05:06:44;78.03;;;38.15;;
45232;SDS011;30969;51.052;17.056;2023-03-01T05:11:48;88.45;;;41.17;;
45232;SDS011;30969;51.052;17.056;2023-03-01T05:16:54;86.93;;;43.33;;
45232;SDS011;30969;51.052;17.056;2023-03-01T05:22:05;90.38;;;42.55;;
45232;SDS011;30969;51.052;17.056;2023-03-01T05:27:08;87.70;;;42.53;;
45232;SDS011;30969;51.052;17.056;2023-03-01T05:32:15;85.93;;;41.17;;
45232;SDS011;30969;51.052;17.056;2023-03-01T05:37:19;82.97;;;39.97;;
45232;SDS011;30969;51.052;17.056;2023-03-01T05:42:22;82.20;;;39.58;;
45232;SDS011;30969;51.052;17.056;2023-03-01T05:47:27;79.15;;;38.97;;
45232;SDS011;30969;51.052;17.056;2023-03-01T05:52:30;83.32;;;39.47;;
45232;SDS011;30969;51.052;17.056;2023-03-01T05:57:34;77.50;;;40.13;;
45232;SDS011;30969;51.052;17.056;2023-03-01T06:02:38;86.88;;;41.45;;
45232;SDS011;30969;51.052;17.056;2023-03-01T06:07:42;85.60;;;43.90;;
45232;SDS011;30969;51.052;17.056;2023-03-01T06:12:46;88.10;;;42.78;;
45232;SDS011;30969;51.052;17.056;2023-03-01T06:17:53;96.43;;;47.05;;
45232;SDS011;30969;51.052;17.056;2023-03-01T06:23:00;110.95;;;50.95;;
45232;SDS011;30969;51.052;17.056;2023-03-01T06:28:04;101.28;;;47.63;;
45232;SDS011;30969;51.052;17.056;2023-03-01T06:33:08;101.82;;;44.80;;
45232;SDS011;30969;51.052;17.056;2023-03-01T06:38:12;93.07;;;46.15;;
45232;SDS011;30969;51.052;17.056;2023-03-01T06:43:16;82.25;;;44.58;;
45232;SDS011;30969;51.052;17.056;2023-03-01T06:48:21;76.22;;;40.97;;
45232;SDS011;30969;51.052;17.056;2023-03-01T06:53:24;74.50;;;38.80;;
45232;SDS011;30969;51.052;17.056;2023-03-01T06:58:28;77.57;;;37.28;;
45232;SDS011;30969;51.052;17.056;2023-03-01T07:03:33;76.03;;;39.30;;
45232;SDS011;30969;51.052;17.056;2023-03-01T07:08:36;102.00;;;46.13;;
45232;SDS011;30969;51.052;17.056;2023-03-01T07:13:40;108.63;;;48.85;;
45232;SDS011;30969;51.052;17.056;2023-03-01T07:18:45;114.05;;;50.42;;
45232;SDS011;30969;51.052;17.056;2023-03-01T07:23:49;101.93;;;51.67;;
45232;SDS011;30969;51.052;17.056;2023-03-01T07:28:52;105.95;;;48.50;;
45232;SDS011;30969;51.052;17.056;2023-03-01T07:33:57;98.63;;;48.00;;
45232;SDS011;30969;51.052;17.056;2023-03-01T07:39:01;92.93;;;44.83;;
45232;SDS011;30969;51.052;17.056;2023-03-01T07:44:05;93.32;;;44.45;;
45232;SDS011;30969;51.052;17.056;2023-03-01T07:49:10;91.90;;;43.40;;
45232;SDS011;30969;51.052;17.056;2023-03-01T07:54:14;93.13;;;44.88;;
45232;SDS011;30969;51.052;17.056;2023-03-01T07:59:17;80.95;;;40.20;;
45232;SDS011;30969;51.052;17.056;2023-03-01T08:04:22;89.45;;;43.95;;
45232;SDS011;30969;51.052;17.056;2023-03-01T08:09:26;79.20;;;37.92;;
45232;SDS011;30969;51.052;17.056;2023-03-01T08:14:30;76.18;;;39.00;;
45232;SDS011;30969;51.052;17.056;2023-03-01T08:19:34;75.70;;;40.63;;
45232;SDS011;30969;51.052;17.056;2023-03-01T08:24:38;71.32;;;35.45;;
45232;SDS011;30969;51.052;17.056;2023-03-01T08:29:42;62.08;;;33.03;;
45232;SDS011;30969;51.052;17.056;2023-03-01T08:34:47;67.53;;;33.53;;
45232;SDS011;30969;51.052;17.056;2023-03-01T08:39:50;61.65;;;32.33;;
45232;SDS011;30969;51.052;17.056;2023-03-01T08:44:54;64.15;;;31.77;;
45232;SDS011;30969;51.052;17.056;2023-03-01T08:49:59;60.78;;;33.05;;
45232;SDS011;30969;51.052;17.056;2023-03-01T08:55:04;57.28;;;30.73;;
45232;SDS011;30969;51.052;17.056;2023-03-01T09:00:08;33.33;;;19.33;;
45232;SDS011;30969;51.052;17.056;2023-03-01T09:05:17;31.38;;;18.20;;
45232;SDS011;30969;51.052;17.056;2023-03-01T09:10:21;45.53;;;23.52;;
45232;SDS011;30969;51.052;17.056;2023-03-01T09:15:24;47.90;;;25.17;;
45232;SDS011;30969;51.052;17.056;2023-03-01T09:20:29;44.97;;;22.65;;
45232;SDS011;30969;51.052;17.056;2023-03-01T09:25:34;45.70;;;23.27;;
45232;SDS011;30969;51.052;17.056;2023-03-01T09:30:37;42.38;;;25.02;;
45232;SDS011;30969;51.052;17.056;2023-03-01T09:35:42;43.13;;;23.50;;
45232;SDS011;30969;51.052;17.056;2023-03-01T09:40:48;45.40;;;22.77;;
45232;SDS011;30969;51.052;17.056;2023-03-01T09:45:52;46.15;;;22.25;;
45232;SDS011;30969;51.052;17.056;2023-03-01T09:50:59;41.30;;;22.20;;
45232;SDS011;30969;51.052;17.056;2023-03-01T09:56:11;40.40;;;21.95;;
45232;SDS011;30969;51.052;17.056;2023-03-01T10:01:29;38.30;;;21.60;;
45232;SDS011;30969;51.052;17.056;2023-03-01T10:06:38;44.58;;;22.63;;
45232;SDS011;30969;51.052;17.056;2023-03-01T10:11:47;42.97;;;23.45;;
45232;SDS011;30969;51.052;17.056;2023-03-01T10:16:55;41.35;;;22.10;;
45232;SDS011;30969;51.052;17.056;2023-03-01T10:22:09;41.45;;;21.45;;
45232;SDS011;30969;51.052;17.056;2023-03-01T10:27:17;42.45;;;21.25;;
45232;SDS011;30969;51.052;17.056;2023-03-01T10:32:25;39.25;;;22.05;;
45232;SDS011;30969;51.052;17.056;2023-03-01T10:37:31;42.13;;;21.20;;
45232;SDS011;30969;51.052;17.056;2023-03-01T10:42:35;39.72;;;22.73;;
45232;SDS011;30969;51.052;17.056;2023-03-01T10:47:42;38.20;;;21.60;;
45232;SDS011;30969;51.052;17.056;2023-03-01T10:52:56;39.50;;;21.85;;
45232;SDS011;30969;51.052;17.056;2023-03-01T10:58:09;40.55;;;21.70;;
45232;SDS011;30969;51.052;17.056;2023-03-01T11:03:21;38.35;;;21.52;;
45232;SDS011;30969;51.052;17.056;2023-03-01T11:08:33;32.45;;;18.60;;
45232;SDS011;30969;51.052;17.056;2023-03-01T11:13:47;30.92;;;17.35;;
45232;SDS011;30969;51.052;17.056;2023-03-01T11:24:03;38.22;;;19.83;;
45232;SDS011;30969;51.052;17.056;2023-03-01T11:29:13;33.25;;;18.48;;
45232;SDS011;30969;51.052;17.056;2023-03-01T11:34:26;33.35;;;18.88;;
45232;SDS011;30969;51.052;17.056;2023-03-01T11:39:41;31.83;;;18.05;;
45232;SDS011;30969;51.052;17.056;2023-03-01T11:44:50;30.95;;;16.95;;
45232;SDS011;30969;51.052;17.056;2023-03-01T11:55:29;27.98;;;16.00;;
45232;SDS011;30969;51.052;17.056;2023-03-01T12:00:47;30.17;;;17.58;;
45232;SDS011;30969;51.052;17.056;2023-03-01T12:06:13;25.08;;;14.68;;
45232;SDS011;30969;51.052;17.056;2023-03-01T12:11:34;22.52;;;13.57;;
45232;SDS011;30969;51.052;17.056;2023-03-01T12:16:56;21.38;;;13.95;;
45232;SDS011;30969;51.052;17.056;2023-03-01T12:22:13;20.73;;;12.68;;
45232;SDS011;30969;51.052;17.056;2023-03-01T12:27:35;21.48;;;11.93;;
45232;SDS011;30969;51.052;17.056;2023-03-01T12:32:52;16.60;;;10.20;;
45232;SDS011;30969;51.052;17.056;2023-03-01T12:38:08;17.60;;;10.85;;
45232;SDS011;30969;51.052;17.056;2023-03-01T12:43:25;18.40;;;10.63;;
45232;SDS011;30969;51.052;17.056;2023-03-01T12:48:40;21.52;;;12.32;;
45232;SDS011;30969;51.052;17.056;2023-03-01T12:53:50;20.73;;;11.63;;
45232;SDS011;30969;51.052;17.056;2023-03-01T12:58:59;26.02;;;13.00;;
45232;SDS011;30969;51.052;17.056;2023-03-01T13:04:18;20.50;;;11.50;;
45232;SDS011;30969;51.052;17.056;2023-03-01T13:09:36;21.23;;;11.82;;
45232;SDS011;30969;51.052;17.056;2023-03-01T13:14:46;19.08;;;11.38;;
45232;SDS011;30969;51.052;17.056;2023-03-01T13:19:55;19.40;;;9.98;;
45232;SDS011;30969;51.052;17.056;2023-03-01T13:25:11;18.42;;;11.65;;
45232;SDS011;30969;51.052;17.056;2023-03-01T13:35:44;16.58;;;9.77;;
45232;SDS011;30969;51.052;17.056;2023-03-01T13:40:58;15.30;;;8.75;;
45232;SDS011;30969;51.052;17.056;2023-03-01T13:46:08;13.02;;;7.28;;
45232;SDS011;30969;51.052;17.056;2023-03-01T13:51:20;12.60;;;7.65;;
45232;SDS011;30969;51.052;17.056;2023-03-01T13:56:27;12.52;;;7.25;;
45232;SDS011;30969;51.052;17.056;2023-03-01T14:01:37;13.52;;;9.68;;
45232;SDS011;30969;51.052;17.056;2023-03-01T14:06:44;13.38;;;8.23;;
45232;SDS011;30969;51.052;17.056;2023-03-01T14:17:37;13.52;;;8.77;;
45232;SDS011;30969;51.052;17.056;2023-03-01T14:23:02;15.93;;;9.45;;
45232;SDS011;30969;51.052;17.056;2023-03-01T14:33:23;14.82;;;8.57;;
45232;SDS011;30969;51.052;17.056;2023-03-01T14:38:29;13.63;;;8.25;;
45232;SDS011;30969;51.052;17.056;2023-03-01T14:43:36;13.77;;;8.95;;
45232;SDS011;30969;51.052;17.056;2023-03-01T14:48:43;11.85;;;7.63;;
45232;SDS011;30969;51.052;17.056;2023-03-01T14:53:47;12.45;;;8.35;;
45232;SDS011;30969;51.052;17.056;2023-03-01T14:58:52;14.00;;;8.38;;
45232;SDS011;30969;51.052;17.056;2023-03-01T15:03:57;14.10;;;8.85;;
45232;SDS011;30969;51.052;17.056;2023-03-01T15:09:03;15.10;;;8.70;;
45232;SDS011;30969;51.052;17.056;2023-03-01T15:19:30;14.13;;;8.95;;
45232;SDS011;30969;51.052;17.056;2023-03-01T15:24:33;19.30;;;9.80;;
45232;SDS011;30969;51.052;17.056;2023-03-01T15:29:38;16.92;;;10.38;;
45232;SDS011;30969;51.052;17.056;2023-03-01T15:34:43;16.00;;;9.88;;
45232;SDS011;30969;51.052;17.056;2023-03-01T15:39:52;19.73;;;9.43;;
45232;SDS011;30969;51.052;17.056;2023-03-01T15:45:07;21.45;;;11.00;;
45232;SDS011;30969;51.052;17.056;2023-03-01T15:50:16;15.55;;;9.15;;
45232;SDS011;30969;51.052;17.056;2023-03-01T15:55:22;17.77;;;11.30;;
45232;SDS011;30969;51.052;17.056;2023-03-01T16:00:27;18.85;;;10.85;;
45232;SDS011;30969;51.052;17.056;2023-03-01T16:05:33;15.68;;;10.25;;
45232;SDS011;30969;51.052;17.056;2023-03-01T16:10:38;18.65;;;10.85;;
45232;SDS011;30969;51.052;17.056;2023-03-01T16:15:42;22.05;;;12.50;;
45232;SDS011;30969;51.052;17.056;2023-03-01T16:20:47;23.77;;;14.10;;
45232;SDS011;30969;51.052;17.056;2023-03-01T16:25:51;28.75;;;15.32;;
45232;SDS011;30969;51.052;17.056;2023-03-01T16:30:55;29.23;;;15.88;;
45232;SDS011;30969;51.052;17.056;2023-03-01T16:36:00;29.90;;;15.45;;
45232;SDS011;30969;51.052;17.056;2023-03-01T16:41:04;26.92;;;13.63;;
45232;SDS011;30969;51.052;17.056;2023-03-01T16:46:10;26.95;;;13.18;;
45232;SDS011;30969;51.052;17.056;2023-03-01T16:51:16;21.88;;;13.32;;
45232;SDS011;30969;51.052;17.056;2023-03-01T16:56:19;23.25;;;13.50;;
45232;SDS011;30969;51.052;17.056;2023-03-01T17:01:23;27.67;;;14.20;;
45232;SDS011;30969;51.052;17.056;2023-03-01T17:06:29;23.08;;;14.85;;
45232;SDS011;30969;51.052;17.056;2023-03-01T17:11:34;26.20;;;16.90;;
45232;SDS011;30969;51.052;17.056;2023-03-01T17:16:38;28.67;;;16.17;;
45232;SDS011;30969;51.052;17.056;2023-03-01T17:21:44;22.27;;;13.63;;
45232;SDS011;30969;51.052;17.056;2023-03-01T17:26:47;23.10;;;14.52;;
45232;SDS011;30969;51.052;17.056;2023-03-01T17:31:51;28.13;;;15.00;;
45232;SDS011;30969;51.052;17.056;2023-03-01T17:36:58;24.70;;;14.85;;
45232;SDS011;30969;51.052;17.056;2023-03-01T17:42:01;28.02;;;17.30;;
45232;SDS011;30969;51.052;17.056;2023-03-01T17:47:08;36.15;;;17.63;;
45232;SDS011;30969;51.052;17.056;2023-03-01T17:52:13;39.25;;;19.80;;
45232;SDS011;30969;51.052;17.056;2023-03-01T17:57:17;31.75;;;18.50;;
45232;SDS011;30969;51.052;17.056;2023-03-01T18:02:20;43.47;;;22.52;;
45232;SDS011;30969;51.052;17.056;2023-03-01T18:07:26;49.38;;;26.25;;
45232;SDS011;30969;51.052;17.056;2023-03-01T18:12:30;59.28;;;28.48;;
45232;SDS011;30969;51.052;17.056;2023-03-01T18:17:34;47.88;;;27.45;;
45232;SDS011;30969;51.052;17.056;2023-03-01T18:22:38;55.33;;;30.55;;
45232;SDS011;30969;51.052;17.056;2023-03-01T18:27:42;66.57;;;31.73;;
45232;SDS011;30969;51.052;17.056;2023-03-01T18:32:46;55.55;;;28.02;;
45232;SDS011;30969;51.052;17.056;2023-03-01T18:37:58;51.30;;;25.75;;
45232;SDS011;30969;51.052;17.056;2023-03-01T18:43:01;46.70;;;24.58;;
45232;SDS011;30969;51.052;17.056;2023-03-01T18:48:05;52.28;;;25.95;;
45232;SDS011;30969;51.052;17.056;2023-03-01T18:53:10;58.25;;;26.55;;
45232;SDS011;30969;51.052;17.056;2023-03-01T18:58:13;53.17;;;27.13;;
45232;SDS011;30969;51.052;17.056;2023-03-01T19:03:16;50.13;;;26.38;;
45232;SDS011;30969;51.052;17.056;2023-03-01T19:08:21;58.35;;;28.98;;
45232;SDS011;30969;51.052;17.056;2023-03-01T19:13:25;53.88;;;29.30;;
45232;SDS011;30969;51.052;17.056;2023-03-01T19:18:29;55.92;;;28.10;;
45232;SDS011;30969;51.052;17.056;2023-03-01T19:23:34;45.97;;;24.45;;
45232;SDS011;30969;51.052;17.056;2023-03-01T19:28:39;55.40;;;27.05;;
45232;SDS011;30969;51.052;17.056;2023-03-01T19:33:43;50.60;;;26.02;;
45232;SDS011;30969;51.052;17.056;2023-03-01T19:38:48;55.05;;;27.08;;
45232;SDS011;30969;51.052;17.056;2023-03-01T19:43:52;52.42;;;26.77;;
45232;SDS011;30969;51.052;17.056;2023-03-01T19:48:56;53.42;;;28.20;;
45232;SDS011;30969;51.052;17.056;2023-03-01T19:54:02;64.15;;;31.52;;
45232;SDS011;30969;51.052;17.056;2023-03-01T19:59:07;55.33;;;29.00;;
45232;SDS011;30969;51.052;17.056;2023-03-01T20:04:10;59.90;;;27.58;;
45232;SDS011;30969;51.052;17.056;2023-03-01T20:09:16;57.10;;;27.25;;
45232;SDS011;30969;51.052;17.056;2023-03-01T20:14:23;62.15;;;30.65;;
45232;SDS011;30969;51.052;17.056;2023-03-01T20:19:26;68.30;;;34.22;;
45232;SDS011;30969;51.052;17.056;2023-03-01T20:24:31;66.15;;;31.15;;
45232;SDS011;30969;51.052;17.056;2023-03-01T20:29:35;68.57;;;33.47;;
45232;SDS011;30969;51.052;17.056;2023-03-01T20:34:38;68.28;;;32.80;;
45232;SDS011;30969;51.052;17.056;2023-03-01T20:39:43;69.50;;;33.95;;
45232;SDS011;30969;51.052;17.056;2023-03-01T20:44:47;65.55;;;31.75;;
45232;SDS011;30969;51.052;17.056;2023-03-01T20:49:51;80.00;;;37.70;;
45232;SDS011;30969;51.052;17.056;2023-03-01T20:54:56;71.50;;;36.10;;
45232;SDS011;30969;51.052;17.056;2023-03-01T21:00:00;73.00;;;37.03;;
45232;SDS011;30969;51.052;17.056;2023-03-01T21:05:04;76.05;;;40.03;;
45232;SDS011;30969;51.052;17.056;2023-03-01T21:10:10;75.15;;;39.17;;
45232;SDS011;30969;51.052;17.056;2023-03-01T21:15:14;74.95;;;39.08;;
45232;SDS011;30969;51.052;17.056;2023-03-01T21:20:30;79.43;;;39.38;;
45232;SDS011;30969;51.052;17.056;2023-03-01T21:25:34;75.18;;;38.90;;
45232;SDS011;30969;51.052;17.056;2023-03-01T21:30:39;77.95;;;37.58;;
45232;SDS011;30969;51.052;17.056;2023-03-01T21:35:42;105.95;;;46.80;;
45232;SDS011;30969;51.052;17.056;2023-03-01T21:40:47;89.88;;;43.10;;
45232;SDS011;30969;51.052;17.056;2023-03-01T21:45:50;84.63;;;40.35;;
45232;SDS011;30969;51.052;17.056;2023-03-01T21:50:54;86.88;;;41.20;;
45232;SDS011;30969;51.052;17.056;2023-03-01T21:55:59;78.68;;;38.97;;
45232;SDS011;30969;51.052;17.056;2023-03-01T22:01:06;86.10;;;40.70;;
45232;SDS011;30969;51.052;17.056;2023-03-01T22:06:12;95.28;;;42.78;;
45232;SDS011;30969;51.052;17.056;2023-03-01T22:11:33;130.48;;;51.13;;
45232;SDS011;30969;51.052;17.056;2023-03-01T22:16:40;153.25;;;59.70;;
45232;SDS011;30969;51.052;17.056;2023-03-01T22:21:47;243.52;;;88.00;;
45232;SDS011;30969;51.052;17.056;2023-03-01T22:26:53;269.23;;;97.95;;
45232;SDS011;30969;51.052;17.056;2023-03-01T22:31:57;229.27;;;87.85;;
45232;SDS011;30969;51.052;17.056;2023-03-01T22:37:01;170.65;;;67.40;;
45232;SDS011;30969;51.052;17.056;2023-03-01T22:42:05;131.38;;;57.22;;
45232;SDS011;30969;51.052;17.056;2023-03-01T22:47:10;121.85;;;50.20;;
45232;SDS011;30969;51.052;17.056;2023-03-01T22:52:14;160.25;;;64.47;;
45232;SDS011;30969;51.052;17.056;2023-03-01T22:57:19;137.10;;;55.70;;
45232;SDS011;30969;51.052;17.056;2023-03-01T23:02:22;141.60;;;57.15;;
45232;SDS011;30969;51.052;17.056;2023-03-01T23:07:26;127.97;;;54.58;;
45232;SDS011;30969;51.052;17.056;2023-03-01T23:12:30;114.28;;;50.95;;
45232;SDS011;30969;51.052;17.056;2023-03-01T23:17:35;115.15;;;53.88;;
45232;SDS011;30969;51.052;17.056;2023-03-01T23:22:38;117.97;;;54.47;;
45232;SDS011;30969;51.052;17.056;2023-03-01T23:27:43;119.47;;;52.75;;
45232;SDS011;30969;51.052;17.056;2023-03-01T23:32:47;108.35;;;49.72;;
45232;SDS011;30969;51.052;17.056;2023-03-01T23:37:51;104.07;;;51.20;;
45232;SDS011;30969;51.052;17.056;2023-03-01T23:42:55;117.13;;;51.75;;
45232;SDS011;30969;51.052;17.056;2023-03-01T23:47:59;93.50;;;47.33;;
45232;SDS011;30969;51.052;17.056;2023-03-01T23:53:02;103.00;;;47.90;;
45232;SDS011;30969;51.052;17.056;2023-03-01T23:58:07;100.10;;;47.00;;
